sensor_id;sensor_type;location;lat;lon;timestamp;P1;durP1;ratioP1;P2;durP2;ratioP2
17482;SDS011;8858;52.308;20.994;2023-02-01T00:00:08;10.20;;;8.67;;
17482;SDS011;8858;52.308;20.994;2023-02-01T00:02:40;9.73;;;8.77;;
17482;SDS011;8858;52.308;20.994;2023-02-01T00:05:08;11.23;;;8.63;;
17482;SDS011;8858;52.308;20.994;2023-02-01T00:07:37;8.23;;;6.33;;
17482;SDS011;8858;52.308;20.994;2023-02-01T00:10:06;9.37;;;8.20;;
17482;SDS011;8858;52.308;20.994;2023-02-01T00:12:37;8.47;;;7.60;;
17482;SDS011;8858;52.308;20.994;2023-02-01T00:15:06;9.50;;;7.23;;
17482;SDS011;8858;52.308;20.994;2023-02-01T00:17:35;10.73;;;7.50;;
17482;SDS011;8858;52.308;20.994;2023-02-01T00:20:11;8.10;;;7.30;;
17482;SDS011;8858;52.308;20.994;2023-02-01T00:22:40;8.43;;;7.53;;
17482;SDS011;8858;52.308;20.994;2023-02-01T00:25:08;8.97;;;7.03;;
17482;SDS011;8858;52.308;20.994;2023-02-01T00:27:36;7.70;;;6.63;;
17482;SDS011;8858;52.308;20.994;2023-02-01T00:30:06;7.77;;;6.30;;
17482;SDS011;8858;52.308;20.994;2023-02-01T00:32:39;7.63;;;6.80;;
17482;SDS011;8858;52.308;20.994;2023-02-01T00:35:08;8.23;;;6.70;;
17482;SDS011;8858;52.308;20.994;2023-02-01T00:37:40;6.23;;;5.63;;
17482;SDS011;8858;52.308;20.994;2023-02-01T00:40:09;5.27;;;3.90;;
17482;SDS011;8858;52.308;20.994;2023-02-01T00:42:41;5.57;;;5.03;;
17482;SDS011;8858;52.308;20.994;2023-02-01T00:45:09;5.20;;;3.97;;
17482;SDS011;8858;52.308;20.994;2023-02-01T00:47:38;4.57;;;4.17;;
17482;SDS011;8858;52.308;20.994;2023-02-01T00:50:09;4.07;;;3.47;;
17482;SDS011;8858;52.308;20.994;2023-02-01T00:52:38;5.37;;;4.20;;
17482;SDS011;8858;52.308;20.994;2023-02-01T00:55:08;5.60;;;3.00;;
17482;SDS011;8858;52.308;20.994;2023-02-01T00:57:36;3.67;;;3.20;;
17482;SDS011;8858;52.308;20.994;2023-02-01T01:00:05;3.37;;;2.87;;
17482;SDS011;8858;52.308;20.994;2023-02-01T01:02:38;4.47;;;2.70;;
17482;SDS011;8858;52.308;20.994;2023-02-01T01:05:06;2.87;;;2.30;;
17482;SDS011;8858;52.308;20.994;2023-02-01T01:07:36;4.80;;;2.47;;
17482;SDS011;8858;52.308;20.994;2023-02-01T01:10:05;4.83;;;2.67;;
17482;SDS011;8858;52.308;20.994;2023-02-01T01:12:39;4.90;;;1.90;;
17482;SDS011;8858;52.308;20.994;2023-02-01T01:15:11;2.73;;;2.20;;
17482;SDS011;8858;52.308;20.994;2023-02-01T01:17:40;4.63;;;2.20;;
17482;SDS011;8858;52.308;20.994;2023-02-01T01:20:09;2.63;;;1.70;;
17482;SDS011;8858;52.308;20.994;2023-02-01T01:22:39;3.10;;;1.93;;
17482;SDS011;8858;52.308;20.994;2023-02-01T01:25:07;5.37;;;2.03;;
17482;SDS011;8858;52.308;20.994;2023-02-01T01:27:39;3.10;;;1.63;;
17482;SDS011;8858;52.308;20.994;2023-02-01T01:30:10;2.70;;;1.50;;
17482;SDS011;8858;52.308;20.994;2023-02-01T01:32:41;3.63;;;1.57;;
17482;SDS011;8858;52.308;20.994;2023-02-01T01:35:10;6.90;;;1.53;;
17482;SDS011;8858;52.308;20.994;2023-02-01T01:37:38;2.50;;;1.50;;
17482;SDS011;8858;52.308;20.994;2023-02-01T01:40:09;2.80;;;1.13;;
17482;SDS011;8858;52.308;20.994;2023-02-01T01:42:40;5.73;;;1.87;;
17482;SDS011;8858;52.308;20.994;2023-02-01T01:45:19;5.43;;;1.70;;
17482;SDS011;8858;52.308;20.994;2023-02-01T01:47:52;3.43;;;1.57;;
17482;SDS011;8858;52.308;20.994;2023-02-01T01:50:27;2.40;;;1.50;;
17482;SDS011;8858;52.308;20.994;2023-02-01T01:53:00;6.33;;;1.70;;
17482;SDS011;8858;52.308;20.994;2023-02-01T01:55:33;3.60;;;1.73;;
17482;SDS011;8858;52.308;20.994;2023-02-01T01:58:08;3.13;;;1.43;;
17482;SDS011;8858;52.308;20.994;2023-02-01T02:00:40;5.10;;;2.07;;
17482;SDS011;8858;52.308;20.994;2023-02-01T02:03:11;4.77;;;1.80;;
17482;SDS011;8858;52.308;20.994;2023-02-01T02:05:46;6.20;;;2.20;;
17482;SDS011;8858;52.308;20.994;2023-02-01T02:08:19;5.97;;;1.70;;
17482;SDS011;8858;52.308;20.994;2023-02-01T02:10:49;5.93;;;1.87;;
17482;SDS011;8858;52.308;20.994;2023-02-01T02:13:29;9.03;;;2.20;;
17482;SDS011;8858;52.308;20.994;2023-02-01T02:16:12;8.27;;;2.07;;
17482;SDS011;8858;52.308;20.994;2023-02-01T02:18:58;6.20;;;2.50;;
17482;SDS011;8858;52.308;20.994;2023-02-01T02:21:52;3.77;;;1.70;;
17482;SDS011;8858;52.308;20.994;2023-02-01T02:27:49;3.03;;;1.60;;
17482;SDS011;8858;52.308;20.994;2023-02-01T02:30:33;9.33;;;2.40;;
17482;SDS011;8858;52.308;20.994;2023-02-01T02:36:53;6.23;;;2.53;;
17482;SDS011;8858;52.308;20.994;2023-02-01T02:39:34;7.87;;;2.20;;
17482;SDS011;8858;52.308;20.994;2023-02-01T02:42:13;4.30;;;2.10;;
17482;SDS011;8858;52.308;20.994;2023-02-01T02:45:04;6.00;;;2.07;;
17482;SDS011;8858;52.308;20.994;2023-02-01T02:47:56;10.13;;;2.90;;
17482;SDS011;8858;52.308;20.994;2023-02-01T02:50:34;7.47;;;2.47;;
17482;SDS011;8858;52.308;20.994;2023-02-01T02:53:30;4.97;;;2.27;;
17482;SDS011;8858;52.308;20.994;2023-02-01T02:56:22;6.37;;;2.27;;
17482;SDS011;8858;52.308;20.994;2023-02-01T02:59:14;5.37;;;2.53;;
17482;SDS011;8858;52.308;20.994;2023-02-01T03:02:07;4.60;;;2.30;;
17482;SDS011;8858;52.308;20.994;2023-02-01T03:04:54;9.80;;;2.60;;
17482;SDS011;8858;52.308;20.994;2023-02-01T03:10:37;11.17;;;2.83;;
17482;SDS011;8858;52.308;20.994;2023-02-01T03:13:15;11.27;;;2.57;;
17482;SDS011;8858;52.308;20.994;2023-02-01T03:15:51;7.80;;;2.77;;
17482;SDS011;8858;52.308;20.994;2023-02-01T03:18:28;11.63;;;3.47;;
17482;SDS011;8858;52.308;20.994;2023-02-01T03:21:02;10.53;;;3.17;;
17482;SDS011;8858;52.308;20.994;2023-02-01T03:23:38;8.00;;;3.27;;
17482;SDS011;8858;52.308;20.994;2023-02-01T03:26:09;11.43;;;4.63;;
17482;SDS011;8858;52.308;20.994;2023-02-01T03:28:42;10.10;;;3.30;;
17482;SDS011;8858;52.308;20.994;2023-02-01T03:31:16;13.83;;;2.77;;
17482;SDS011;8858;52.308;20.994;2023-02-01T03:33:47;12.03;;;2.90;;
17482;SDS011;8858;52.308;20.994;2023-02-01T03:36:18;7.83;;;2.80;;
17482;SDS011;8858;52.308;20.994;2023-02-01T03:38:58;13.27;;;2.57;;
17482;SDS011;8858;52.308;20.994;2023-02-01T03:41:34;8.03;;;2.77;;
17482;SDS011;8858;52.308;20.994;2023-02-01T03:44:08;11.40;;;2.70;;
17482;SDS011;8858;52.308;20.994;2023-02-01T03:46:42;10.33;;;3.00;;
17482;SDS011;8858;52.308;20.994;2023-02-01T03:49:17;7.90;;;2.47;;
17482;SDS011;8858;52.308;20.994;2023-02-01T03:51:49;9.27;;;2.67;;
17482;SDS011;8858;52.308;20.994;2023-02-01T03:54:21;6.63;;;2.10;;
17482;SDS011;8858;52.308;20.994;2023-02-01T03:56:56;8.77;;;2.50;;
17482;SDS011;8858;52.308;20.994;2023-02-01T03:59:29;11.57;;;3.17;;
17482;SDS011;8858;52.308;20.994;2023-02-01T04:01:57;9.00;;;2.80;;
17482;SDS011;8858;52.308;20.994;2023-02-01T04:04:30;14.10;;;3.90;;
17482;SDS011;8858;52.308;20.994;2023-02-01T04:06:59;12.27;;;3.27;;
17482;SDS011;8858;52.308;20.994;2023-02-01T04:09:28;15.67;;;3.90;;
17482;SDS011;8858;52.308;20.994;2023-02-01T04:11:58;11.70;;;3.53;;
17482;SDS011;8858;52.308;20.994;2023-02-01T04:14:30;14.40;;;3.97;;
17482;SDS011;8858;52.308;20.994;2023-02-01T04:16:58;12.53;;;3.57;;
17482;SDS011;8858;52.308;20.994;2023-02-01T04:19:27;14.00;;;3.40;;
17482;SDS011;8858;52.308;20.994;2023-02-01T04:21:56;9.83;;;3.90;;
17482;SDS011;8858;52.308;20.994;2023-02-01T04:24:25;13.47;;;4.30;;
17482;SDS011;8858;52.308;20.994;2023-02-01T04:26:53;14.10;;;4.07;;
17482;SDS011;8858;52.308;20.994;2023-02-01T04:29:27;15.23;;;3.50;;
17482;SDS011;8858;52.308;20.994;2023-02-01T04:31:56;10.20;;;3.00;;
17482;SDS011;8858;52.308;20.994;2023-02-01T04:34:24;12.50;;;3.37;;
17482;SDS011;8858;52.308;20.994;2023-02-01T04:36:53;9.13;;;2.63;;
17482;SDS011;8858;52.308;20.994;2023-02-01T04:39:21;10.73;;;4.07;;
17482;SDS011;8858;52.308;20.994;2023-02-01T04:41:53;10.50;;;3.30;;
17482;SDS011;8858;52.308;20.994;2023-02-01T04:44:22;13.67;;;3.80;;
17482;SDS011;8858;52.308;20.994;2023-02-01T04:46:54;10.33;;;3.23;;
17482;SDS011;8858;52.308;20.994;2023-02-01T04:49:22;13.63;;;3.90;;
17482;SDS011;8858;52.308;20.994;2023-02-01T04:51:51;15.03;;;3.50;;
17482;SDS011;8858;52.308;20.994;2023-02-01T04:54:21;13.53;;;3.80;;
17482;SDS011;8858;52.308;20.994;2023-02-01T04:56:50;11.80;;;3.50;;
17482;SDS011;8858;52.308;20.994;2023-02-01T04:59:21;11.03;;;3.13;;
17482;SDS011;8858;52.308;20.994;2023-02-01T05:01:49;14.37;;;3.50;;
17482;SDS011;8858;52.308;20.994;2023-02-01T05:04:20;13.00;;;3.33;;
17482;SDS011;8858;52.308;20.994;2023-02-01T05:06:48;11.10;;;3.30;;
17482;SDS011;8858;52.308;20.994;2023-02-01T05:09:16;9.27;;;3.47;;
17482;SDS011;8858;52.308;20.994;2023-02-01T05:11:44;14.83;;;3.77;;
17482;SDS011;8858;52.308;20.994;2023-02-01T05:14:30;8.33;;;2.43;;
17482;SDS011;8858;52.308;20.994;2023-02-01T05:16:58;8.37;;;3.10;;
17482;SDS011;8858;52.308;20.994;2023-02-01T05:19:29;11.70;;;3.23;;
17482;SDS011;8858;52.308;20.994;2023-02-01T05:21:57;13.10;;;2.97;;
17482;SDS011;8858;52.308;20.994;2023-02-01T05:24:25;15.37;;;3.30;;
17482;SDS011;8858;52.308;20.994;2023-02-01T05:26:54;9.00;;;2.80;;
17482;SDS011;8858;52.308;20.994;2023-02-01T05:29:22;13.53;;;3.50;;
17482;SDS011;8858;52.308;20.994;2023-02-01T05:31:51;12.33;;;3.30;;
17482;SDS011;8858;52.308;20.994;2023-02-01T05:34:19;14.67;;;4.10;;
17482;SDS011;8858;52.308;20.994;2023-02-01T05:37:14;8.90;;;2.80;;
17482;SDS011;8858;52.308;20.994;2023-02-01T05:39:42;9.33;;;3.00;;
17482;SDS011;8858;52.308;20.994;2023-02-01T05:42:11;13.87;;;3.50;;
17482;SDS011;8858;52.308;20.994;2023-02-01T05:44:39;8.47;;;3.00;;
17482;SDS011;8858;52.308;20.994;2023-02-01T05:47:09;12.23;;;2.90;;
17482;SDS011;8858;52.308;20.994;2023-02-01T05:49:38;8.97;;;3.00;;
17482;SDS011;8858;52.308;20.994;2023-02-01T05:52:07;7.13;;;2.40;;
17482;SDS011;8858;52.308;20.994;2023-02-01T05:54:46;12.53;;;3.70;;
17482;SDS011;8858;52.308;20.994;2023-02-01T05:57:15;16.93;;;4.00;;
17482;SDS011;8858;52.308;20.994;2023-02-01T05:59:47;16.07;;;3.40;;
17482;SDS011;8858;52.308;20.994;2023-02-01T06:02:16;12.03;;;3.90;;
17482;SDS011;8858;52.308;20.994;2023-02-01T06:04:46;10.70;;;3.37;;
17482;SDS011;8858;52.308;20.994;2023-02-01T06:07:15;11.03;;;2.53;;
17482;SDS011;8858;52.308;20.994;2023-02-01T06:09:45;9.90;;;3.67;;
17482;SDS011;8858;52.308;20.994;2023-02-01T06:12:14;8.77;;;3.63;;
17482;SDS011;8858;52.308;20.994;2023-02-01T06:14:42;12.30;;;3.70;;
17482;SDS011;8858;52.308;20.994;2023-02-01T06:17:12;15.30;;;3.23;;
17482;SDS011;8858;52.308;20.994;2023-02-01T06:19:41;9.87;;;3.13;;
17482;SDS011;8858;52.308;20.994;2023-02-01T06:22:10;11.23;;;3.73;;
17482;SDS011;8858;52.308;20.994;2023-02-01T06:24:43;10.20;;;3.30;;
17482;SDS011;8858;52.308;20.994;2023-02-01T06:27:14;12.47;;;3.60;;
17482;SDS011;8858;52.308;20.994;2023-02-01T06:29:42;11.30;;;2.90;;
17482;SDS011;8858;52.308;20.994;2023-02-01T06:32:11;13.73;;;4.43;;
17482;SDS011;8858;52.308;20.994;2023-02-01T06:34:40;12.27;;;3.27;;
17482;SDS011;8858;52.308;20.994;2023-02-01T06:37:12;11.67;;;3.40;;
17482;SDS011;8858;52.308;20.994;2023-02-01T06:39:40;11.97;;;3.93;;
17482;SDS011;8858;52.308;20.994;2023-02-01T06:42:09;16.27;;;3.77;;
17482;SDS011;8858;52.308;20.994;2023-02-01T06:44:40;14.87;;;3.50;;
17482;SDS011;8858;52.308;20.994;2023-02-01T06:47:08;16.50;;;4.50;;
17482;SDS011;8858;52.308;20.994;2023-02-01T06:49:41;11.93;;;3.90;;
17482;SDS011;8858;52.308;20.994;2023-02-01T06:52:09;11.43;;;3.20;;
17482;SDS011;8858;52.308;20.994;2023-02-01T06:54:37;15.73;;;3.00;;
17482;SDS011;8858;52.308;20.994;2023-02-01T06:57:06;14.97;;;3.13;;
17482;SDS011;8858;52.308;20.994;2023-02-01T06:59:34;13.77;;;3.77;;
17482;SDS011;8858;52.308;20.994;2023-02-01T07:02:10;12.97;;;3.50;;
17482;SDS011;8858;52.308;20.994;2023-02-01T07:04:39;9.27;;;2.90;;
17482;SDS011;8858;52.308;20.994;2023-02-01T07:07:07;9.47;;;3.23;;
17482;SDS011;8858;52.308;20.994;2023-02-01T07:09:37;13.23;;;3.53;;
17482;SDS011;8858;52.308;20.994;2023-02-01T07:12:08;7.43;;;2.07;;
17482;SDS011;8858;52.308;20.994;2023-02-01T07:14:39;9.07;;;2.83;;
17482;SDS011;8858;52.308;20.994;2023-02-01T07:17:07;9.03;;;2.83;;
17482;SDS011;8858;52.308;20.994;2023-02-01T07:19:38;10.77;;;3.00;;
17482;SDS011;8858;52.308;20.994;2023-02-01T07:22:06;12.87;;;3.03;;
17482;SDS011;8858;52.308;20.994;2023-02-01T07:24:35;7.90;;;2.60;;
17482;SDS011;8858;52.308;20.994;2023-02-01T07:27:07;11.90;;;2.60;;
17482;SDS011;8858;52.308;20.994;2023-02-01T07:29:36;9.10;;;2.83;;
17482;SDS011;8858;52.308;20.994;2023-02-01T07:32:05;12.30;;;2.70;;
17482;SDS011;8858;52.308;20.994;2023-02-01T07:34:35;13.03;;;2.70;;
17482;SDS011;8858;52.308;20.994;2023-02-01T07:37:04;18.10;;;4.17;;
17482;SDS011;8858;52.308;20.994;2023-02-01T07:39:37;10.63;;;3.20;;
17482;SDS011;8858;52.308;20.994;2023-02-01T07:42:05;12.50;;;3.73;;
17482;SDS011;8858;52.308;20.994;2023-02-01T07:44:34;13.03;;;3.77;;
17482;SDS011;8858;52.308;20.994;2023-02-01T07:47:03;13.77;;;2.60;;
17482;SDS011;8858;52.308;20.994;2023-02-01T07:49:32;13.60;;;3.80;;
17482;SDS011;8858;52.308;20.994;2023-02-01T07:52:05;16.77;;;4.43;;
17482;SDS011;8858;52.308;20.994;2023-02-01T07:54:33;12.60;;;3.37;;
17482;SDS011;8858;52.308;20.994;2023-02-01T07:57:07;17.80;;;5.77;;
17482;SDS011;8858;52.308;20.994;2023-02-01T07:59:37;14.63;;;4.70;;
17482;SDS011;8858;52.308;20.994;2023-02-01T08:02:26;15.80;;;4.20;;
17482;SDS011;8858;52.308;20.994;2023-02-01T08:04:55;12.13;;;3.73;;
17482;SDS011;8858;52.308;20.994;2023-02-01T08:07:27;12.60;;;3.80;;
17482;SDS011;8858;52.308;20.994;2023-02-01T08:09:56;10.93;;;3.23;;
17482;SDS011;8858;52.308;20.994;2023-02-01T08:12:26;16.20;;;4.00;;
17482;SDS011;8858;52.308;20.994;2023-02-01T08:14:54;11.77;;;3.00;;
17482;SDS011;8858;52.308;20.994;2023-02-01T08:17:23;13.27;;;4.13;;
17482;SDS011;8858;52.308;20.994;2023-02-01T08:19:57;16.40;;;3.43;;
17482;SDS011;8858;52.308;20.994;2023-02-01T08:22:25;13.53;;;3.80;;
17482;SDS011;8858;52.308;20.994;2023-02-01T08:24:55;10.63;;;3.03;;
17482;SDS011;8858;52.308;20.994;2023-02-01T08:27:28;10.50;;;3.60;;
17482;SDS011;8858;52.308;20.994;2023-02-01T08:29:56;11.77;;;3.80;;
17482;SDS011;8858;52.308;20.994;2023-02-01T08:32:25;11.63;;;3.20;;
17482;SDS011;8858;52.308;20.994;2023-02-01T08:34:54;12.37;;;4.10;;
17482;SDS011;8858;52.308;20.994;2023-02-01T08:37:26;9.50;;;3.13;;
17482;SDS011;8858;52.308;20.994;2023-02-01T08:39:56;9.77;;;3.00;;
17482;SDS011;8858;52.308;20.994;2023-02-01T08:42:25;11.93;;;4.00;;
17482;SDS011;8858;52.308;20.994;2023-02-01T08:45:11;11.90;;;3.30;;
17482;SDS011;8858;52.308;20.994;2023-02-01T08:47:42;8.10;;;3.23;;
17482;SDS011;8858;52.308;20.994;2023-02-01T08:50:11;12.97;;;3.53;;
17482;SDS011;8858;52.308;20.994;2023-02-01T08:52:40;7.50;;;3.33;;
17482;SDS011;8858;52.308;20.994;2023-02-01T08:55:11;12.47;;;4.10;;
17482;SDS011;8858;52.308;20.994;2023-02-01T08:57:40;16.23;;;4.07;;
17482;SDS011;8858;52.308;20.994;2023-02-01T09:00:33;15.33;;;3.43;;
17482;SDS011;8858;52.308;20.994;2023-02-01T09:03:02;7.80;;;2.93;;
17482;SDS011;8858;52.308;20.994;2023-02-01T09:05:30;7.57;;;2.87;;
17482;SDS011;8858;52.308;20.994;2023-02-01T09:08:14;15.30;;;3.93;;
17482;SDS011;8858;52.308;20.994;2023-02-01T09:10:46;10.77;;;3.60;;
17482;SDS011;8858;52.308;20.994;2023-02-01T09:13:14;10.97;;;4.03;;
17482;SDS011;8858;52.308;20.994;2023-02-01T09:15:43;13.63;;;3.80;;
17482;SDS011;8858;52.308;20.994;2023-02-01T09:18:12;6.80;;;2.90;;
17482;SDS011;8858;52.308;20.994;2023-02-01T09:20:46;9.90;;;3.07;;
17482;SDS011;8858;52.308;20.994;2023-02-01T09:23:15;12.73;;;3.50;;
17482;SDS011;8858;52.308;20.994;2023-02-01T09:25:43;12.97;;;3.30;;
17482;SDS011;8858;52.308;20.994;2023-02-01T09:28:13;18.83;;;3.80;;
17482;SDS011;8858;52.308;20.994;2023-02-01T09:30:41;10.50;;;3.40;;
17482;SDS011;8858;52.308;20.994;2023-02-01T09:33:15;14.10;;;3.93;;
17482;SDS011;8858;52.308;20.994;2023-02-01T09:35:44;9.50;;;3.60;;
17482;SDS011;8858;52.308;20.994;2023-02-01T09:38:13;8.90;;;2.90;;
17482;SDS011;8858;52.308;20.994;2023-02-01T09:40:43;11.30;;;3.43;;
17482;SDS011;8858;52.308;20.994;2023-02-01T09:43:18;6.80;;;2.40;;
17482;SDS011;8858;52.308;20.994;2023-02-01T09:45:58;15.03;;;3.40;;
17482;SDS011;8858;52.308;20.994;2023-02-01T09:48:39;9.67;;;3.13;;
17482;SDS011;8858;52.308;20.994;2023-02-01T09:51:12;7.47;;;2.77;;
17482;SDS011;8858;52.308;20.994;2023-02-01T09:53:48;13.23;;;3.87;;
17482;SDS011;8858;52.308;20.994;2023-02-01T09:56:27;12.13;;;3.40;;
17482;SDS011;8858;52.308;20.994;2023-02-01T09:59:06;10.73;;;3.73;;
17482;SDS011;8858;52.308;20.994;2023-02-01T10:01:46;12.43;;;3.60;;
17482;SDS011;8858;52.308;20.994;2023-02-01T10:04:16;8.83;;;3.07;;
17482;SDS011;8858;52.308;20.994;2023-02-01T10:06:53;7.50;;;2.30;;
17482;SDS011;8858;52.308;20.994;2023-02-01T10:09:32;10.67;;;3.17;;
17482;SDS011;8858;52.308;20.994;2023-02-01T10:15:18;7.50;;;2.80;;
17482;SDS011;8858;52.308;20.994;2023-02-01T10:18:09;10.50;;;3.67;;
17482;SDS011;8858;52.308;20.994;2023-02-01T10:20:56;14.17;;;3.73;;
17482;SDS011;8858;52.308;20.994;2023-02-01T10:23:37;9.20;;;3.50;;
17482;SDS011;8858;52.308;20.994;2023-02-01T10:26:22;14.23;;;3.80;;
17482;SDS011;8858;52.308;20.994;2023-02-01T10:28:55;14.97;;;3.47;;
17482;SDS011;8858;52.308;20.994;2023-02-01T10:31:28;10.73;;;3.20;;
17482;SDS011;8858;52.308;20.994;2023-02-01T10:34:06;12.67;;;3.47;;
17482;SDS011;8858;52.308;20.994;2023-02-01T10:36:46;13.00;;;3.30;;
17482;SDS011;8858;52.308;20.994;2023-02-01T10:39:19;10.33;;;3.40;;
17482;SDS011;8858;52.308;20.994;2023-02-01T10:41:49;9.60;;;3.83;;
17482;SDS011;8858;52.308;20.994;2023-02-01T10:44:24;9.73;;;3.23;;
17482;SDS011;8858;52.308;20.994;2023-02-01T10:46:57;10.77;;;3.03;;
17482;SDS011;8858;52.308;20.994;2023-02-01T10:49:32;10.97;;;3.23;;
17482;SDS011;8858;52.308;20.994;2023-02-01T10:52:09;9.10;;;3.07;;
17482;SDS011;8858;52.308;20.994;2023-02-01T10:54:40;12.77;;;3.50;;
17482;SDS011;8858;52.308;20.994;2023-02-01T10:57:10;10.13;;;3.17;;
17482;SDS011;8858;52.308;20.994;2023-02-01T10:59:50;9.10;;;3.17;;
17482;SDS011;8858;52.308;20.994;2023-02-01T11:02:23;12.17;;;3.20;;
17482;SDS011;8858;52.308;20.994;2023-02-01T11:05:00;12.10;;;3.57;;
17482;SDS011;8858;52.308;20.994;2023-02-01T11:07:30;11.37;;;3.50;;
17482;SDS011;8858;52.308;20.994;2023-02-01T11:10:04;12.60;;;3.10;;
17482;SDS011;8858;52.308;20.994;2023-02-01T11:12:34;9.03;;;3.37;;
17482;SDS011;8858;52.308;20.994;2023-02-01T11:15:15;13.70;;;4.57;;
17482;SDS011;8858;52.308;20.994;2023-02-01T11:17:50;9.80;;;4.07;;
17482;SDS011;8858;52.308;20.994;2023-02-01T11:20:25;8.70;;;2.80;;
17482;SDS011;8858;52.308;20.994;2023-02-01T11:23:03;7.90;;;2.83;;
17482;SDS011;8858;52.308;20.994;2023-02-01T11:25:32;12.97;;;3.60;;
17482;SDS011;8858;52.308;20.994;2023-02-01T11:28:04;12.30;;;3.30;;
17482;SDS011;8858;52.308;20.994;2023-02-01T11:30:38;15.80;;;4.10;;
17482;SDS011;8858;52.308;20.994;2023-02-01T11:33:13;12.87;;;4.23;;
17482;SDS011;8858;52.308;20.994;2023-02-01T11:35:44;9.50;;;3.67;;
17482;SDS011;8858;52.308;20.994;2023-02-01T11:38:19;8.17;;;3.33;;
17482;SDS011;8858;52.308;20.994;2023-02-01T11:40:52;9.90;;;3.83;;
17482;SDS011;8858;52.308;20.994;2023-02-01T11:43:22;8.07;;;3.40;;
17482;SDS011;8858;52.308;20.994;2023-02-01T11:45:55;5.43;;;2.33;;
17482;SDS011;8858;52.308;20.994;2023-02-01T11:48:27;9.87;;;2.80;;
17482;SDS011;8858;52.308;20.994;2023-02-01T11:53:58;9.57;;;3.20;;
17482;SDS011;8858;52.308;20.994;2023-02-01T11:56:40;8.13;;;3.00;;
17482;SDS011;8858;52.308;20.994;2023-02-01T11:59:19;12.33;;;3.40;;
17482;SDS011;8858;52.308;20.994;2023-02-01T12:02:16;10.67;;;3.37;;
17482;SDS011;8858;52.308;20.994;2023-02-01T12:05:10;14.80;;;5.53;;
17482;SDS011;8858;52.308;20.994;2023-02-01T12:07:56;13.07;;;3.90;;
17482;SDS011;8858;52.308;20.994;2023-02-01T12:10:46;11.67;;;3.07;;
17482;SDS011;8858;52.308;20.994;2023-02-01T12:13:35;6.33;;;2.30;;
17482;SDS011;8858;52.308;20.994;2023-02-01T12:16:18;10.60;;;3.03;;
17482;SDS011;8858;52.308;20.994;2023-02-01T12:19:02;12.47;;;3.70;;
17482;SDS011;8858;52.308;20.994;2023-02-01T12:21:47;11.77;;;3.90;;
17482;SDS011;8858;52.308;20.994;2023-02-01T12:24:30;12.43;;;3.57;;
17482;SDS011;8858;52.308;20.994;2023-02-01T12:27:42;13.73;;;4.03;;
17482;SDS011;8858;52.308;20.994;2023-02-01T12:30:29;7.67;;;3.27;;
17482;SDS011;8858;52.308;20.994;2023-02-01T12:33:11;12.90;;;3.83;;
17482;SDS011;8858;52.308;20.994;2023-02-01T12:35:55;11.70;;;3.80;;
17482;SDS011;8858;52.308;20.994;2023-02-01T12:38:41;11.70;;;3.77;;
17482;SDS011;8858;52.308;20.994;2023-02-01T12:44:11;9.80;;;3.57;;
17482;SDS011;8858;52.308;20.994;2023-02-01T12:46:52;14.80;;;3.60;;
17482;SDS011;8858;52.308;20.994;2023-02-01T12:49:23;10.10;;;3.33;;
17482;SDS011;8858;52.308;20.994;2023-02-01T12:52:00;10.77;;;3.60;;
17482;SDS011;8858;52.308;20.994;2023-02-01T12:54:37;11.67;;;4.10;;
17482;SDS011;8858;52.308;20.994;2023-02-01T12:57:11;13.90;;;3.83;;
17482;SDS011;8858;52.308;20.994;2023-02-01T12:59:44;12.90;;;3.87;;
17482;SDS011;8858;52.308;20.994;2023-02-01T13:02:19;13.87;;;3.40;;
17482;SDS011;8858;52.308;20.994;2023-02-01T13:04:58;12.87;;;2.70;;
17482;SDS011;8858;52.308;20.994;2023-02-01T13:07:31;16.37;;;3.80;;
17482;SDS011;8858;52.308;20.994;2023-02-01T13:10:11;15.60;;;3.70;;
17482;SDS011;8858;52.308;20.994;2023-02-01T13:12:47;16.77;;;4.50;;
17482;SDS011;8858;52.308;20.994;2023-02-01T13:15:28;11.60;;;3.93;;
17482;SDS011;8858;52.308;20.994;2023-02-01T13:18:00;13.13;;;4.17;;
17482;SDS011;8858;52.308;20.994;2023-02-01T13:20:38;10.67;;;4.07;;
17482;SDS011;8858;52.308;20.994;2023-02-01T13:23:16;16.67;;;4.10;;
17482;SDS011;8858;52.308;20.994;2023-02-01T13:25:52;10.30;;;3.60;;
17482;SDS011;8858;52.308;20.994;2023-02-01T13:28:25;4.63;;;2.50;;
17482;SDS011;8858;52.308;20.994;2023-02-01T13:31:02;8.83;;;2.83;;
17482;SDS011;8858;52.308;20.994;2023-02-01T13:36:57;8.77;;;3.37;;
17482;SDS011;8858;52.308;20.994;2023-02-01T13:39:43;11.47;;;2.73;;
17482;SDS011;8858;52.308;20.994;2023-02-01T13:42:18;10.37;;;2.80;;
17482;SDS011;8858;52.308;20.994;2023-02-01T13:44:51;3.80;;;2.07;;
17482;SDS011;8858;52.308;20.994;2023-02-01T13:47:26;7.50;;;3.30;;
17482;SDS011;8858;52.308;20.994;2023-02-01T13:49:58;8.03;;;2.60;;
17482;SDS011;8858;52.308;20.994;2023-02-01T13:52:36;9.63;;;2.77;;
17482;SDS011;8858;52.308;20.994;2023-02-01T13:55:25;7.17;;;2.17;;
17482;SDS011;8858;52.308;20.994;2023-02-01T13:58:04;8.07;;;2.57;;
17482;SDS011;8858;52.308;20.994;2023-02-01T14:00:42;6.83;;;2.57;;
17482;SDS011;8858;52.308;20.994;2023-02-01T14:03:15;5.57;;;2.50;;
17482;SDS011;8858;52.308;20.994;2023-02-01T14:05:56;9.33;;;2.70;;
17482;SDS011;8858;52.308;20.994;2023-02-01T14:08:38;7.30;;;2.73;;
17482;SDS011;8858;52.308;20.994;2023-02-01T14:11:32;6.33;;;3.00;;
17482;SDS011;8858;52.308;20.994;2023-02-01T14:23:22;9.47;;;3.40;;
17482;SDS011;8858;52.308;20.994;2023-02-01T14:28:56;8.97;;;3.80;;
17482;SDS011;8858;52.308;20.994;2023-02-01T14:31:34;7.73;;;3.17;;
17482;SDS011;8858;52.308;20.994;2023-02-01T14:34:21;8.90;;;3.50;;
17482;SDS011;8858;52.308;20.994;2023-02-01T14:36:59;8.40;;;3.33;;
17482;SDS011;8858;52.308;20.994;2023-02-01T14:39:35;8.40;;;3.40;;
17482;SDS011;8858;52.308;20.994;2023-02-01T14:42:17;7.47;;;3.20;;
17482;SDS011;8858;52.308;20.994;2023-02-01T14:44:52;7.60;;;2.70;;
17482;SDS011;8858;52.308;20.994;2023-02-01T14:47:27;9.17;;;2.90;;
17482;SDS011;8858;52.308;20.994;2023-02-01T14:53:12;7.70;;;3.53;;
17482;SDS011;8858;52.308;20.994;2023-02-01T14:55:46;6.93;;;3.73;;
17482;SDS011;8858;52.308;20.994;2023-02-01T14:58:27;7.90;;;2.80;;
17482;SDS011;8858;52.308;20.994;2023-02-01T15:01:02;7.97;;;2.80;;
17482;SDS011;8858;52.308;20.994;2023-02-01T15:03:40;4.77;;;2.37;;
17482;SDS011;8858;52.308;20.994;2023-02-01T15:06:22;3.60;;;1.90;;
17482;SDS011;8858;52.308;20.994;2023-02-01T15:08:55;4.70;;;2.27;;
17482;SDS011;8858;52.308;20.994;2023-02-01T15:11:27;4.97;;;2.57;;
17482;SDS011;8858;52.308;20.994;2023-02-01T15:13:57;3.50;;;2.20;;
17482;SDS011;8858;52.308;20.994;2023-02-01T15:16:27;5.67;;;2.83;;
17482;SDS011;8858;52.308;20.994;2023-02-01T15:19:09;5.00;;;2.10;;
17482;SDS011;8858;52.308;20.994;2023-02-01T15:21:46;4.43;;;2.20;;
17482;SDS011;8858;52.308;20.994;2023-02-01T15:24:19;5.40;;;2.33;;
17482;SDS011;8858;52.308;20.994;2023-02-01T15:26:49;5.40;;;2.80;;
17482;SDS011;8858;52.308;20.994;2023-02-01T15:29:19;5.97;;;2.53;;
17482;SDS011;8858;52.308;20.994;2023-02-01T15:31:52;4.60;;;2.27;;
17482;SDS011;8858;52.308;20.994;2023-02-01T15:34:23;3.40;;;2.00;;
17482;SDS011;8858;52.308;20.994;2023-02-01T15:37:13;4.70;;;2.77;;
17482;SDS011;8858;52.308;20.994;2023-02-01T15:42:34;6.07;;;3.20;;
17482;SDS011;8858;52.308;20.994;2023-02-01T15:45:03;6.10;;;2.57;;
17482;SDS011;8858;52.308;20.994;2023-02-01T15:47:32;7.10;;;3.37;;
17482;SDS011;8858;52.308;20.994;2023-02-01T15:50:04;5.80;;;3.00;;
17482;SDS011;8858;52.308;20.994;2023-02-01T15:52:35;4.30;;;2.33;;
17482;SDS011;8858;52.308;20.994;2023-02-01T15:55:05;4.10;;;2.63;;
17482;SDS011;8858;52.308;20.994;2023-02-01T15:57:44;5.13;;;2.80;;
17482;SDS011;8858;52.308;20.994;2023-02-01T16:00:18;5.43;;;2.80;;